Aviation Digital Data Service (ADDS)

Output produced by METARs form (0402 UTC 24 May 2017)
found at http://aviationweather.gov/adds/metars/
 
KILM 232321Z 2400/2424 22008KT 6SM -SHRA SCT010 OVC050 
     TEMPO 2401/2403 3SM +TSRA BKN010CB 
     FM240300 21011G19KT P6SM OVC025 
     TEMPO 2403/2405 4SM +TSRA OVC010CB 
     FM240500 21011G19KT P6SM -SHRA VCTS OVC025CB 
     TEMPO 2405/2408 4SM SHRA OVC010 
     FM240900 24007KT P6SM OVC010 
     PROB30 2409/2413 -SHRA OVC004 
     FM241300 24006KT P6SM OVC025 
     FM241600 20007KT P6SM SHRA VCTS OVC025CB 
     FM242000 19011G19KT P6SM SHRA VCTS OVC025CB